AAO weather

Colonel James Jabara Airport
Wichita, Kansas, United States

Public forecast

Using degrees Fahrenheit for public forecast. Weather courtesy of forecast.io.

Current aviation weather report (METAR) for Colonel James Jabara Airport

Report is more than 6 hours old.

Retrieved 2020/08/03 20:54 UTC (11 hours ago):

KAAO 032054Z AUTO 06007KT 10SM FEW060 27/12 A3009 RMK AO2 SLP181 T02720122 58018

Closest aviation forecast (TAF) to Colonel James Jabara Airport

Closest forecast is Mc Connell Air Force Base, 7.9 nm (14.6 km) SSW. Retrieved 2020-08-04 02:22 UTC (5 hours ago):

TAF KIAB 040200Z 0402/0508 VRB06KT 9999 FEW070 FEW200 QNH3008INS BECMG 0414/0415 12012KT 9999 SCT020 BKN070 QNH3005INS BECMG 0502/0503 VRB06KT 9999 BKN050 QNH3007INS TX27/0421Z TN15/0411Z